createdAt,value
2018-06-09T00:00:44.853Z,149.40
2018-06-09T00:03:13.293Z,133.13
2018-06-09T00:05:41.725Z,159.60
2018-06-09T00:08:10.152Z,111.83
2018-06-09T00:10:38.569Z,103.77
2018-06-09T00:13:07.009Z,112.67
2018-06-09T00:15:35.532Z,151.43
2018-06-09T00:18:03.971Z,177.70
2018-06-09T00:20:32.384Z,129.70
2018-06-09T00:23:00.833Z,168.57
2018-06-09T00:25:29.917Z,173.47
2018-06-09T00:27:58.368Z,164.47
2018-06-09T00:30:26.466Z,193.17
2018-06-09T00:32:54.908Z,161.77
2018-06-09T00:35:23.342Z,188.70
2018-06-09T00:37:51.769Z,164.00
2018-06-09T00:40:19.888Z,183.70
2018-06-09T00:42:48.321Z,197.20
2018-06-09T00:45:16.780Z,180.17
2018-06-09T00:47:45.196Z,179.37
2018-06-09T00:50:13.311Z,142.33
2018-06-09T00:52:41.728Z,212.80
2018-06-09T00:55:10.433Z,189.73
2018-06-09T00:57:38.861Z,193.90
2018-06-09T01:00:07.361Z,192.27
2018-06-09T01:02:35.845Z,206.67
2018-06-09T01:05:04.038Z,175.63
2018-06-09T01:07:32.488Z,148.93
2018-06-09T01:10:00.928Z,244.53
2018-06-09T01:12:29.381Z,183.93
2018-06-09T01:14:58.100Z,216.13
2018-06-09T01:17:26.541Z,157.37
2018-06-09T01:19:55.000Z,187.10
2018-06-09T01:22:23.441Z,194.60
2018-06-09T01:24:51.870Z,177.70
2018-06-09T01:27:20.304Z,208.43
2018-06-09T01:29:48.721Z,251.63
2018-06-09T01:32:16.848Z,189.13
2018-06-09T01:34:45.273Z,180.33
2018-06-09T01:37:13.717Z,231.60
2018-06-09T01:39:42.153Z,187.87
2018-06-09T01:42:10.588Z,166.27
2018-06-09T01:44:39.024Z,226.80
2018-06-09T01:47:07.441Z,235.50
2018-06-09T01:49:36.204Z,197.83
2018-06-09T01:52:04.654Z,240.03
2018-06-09T01:54:33.090Z,216.13
2018-06-09T01:57:04.126Z,233.57
2018-06-09T01:59:32.564Z,167.03
2018-06-09T02:02:01.009Z,272.60
2018-06-09T02:04:29.444Z,285.43
2018-06-09T02:06:57.861Z,239.60
2018-06-09T02:09:26.310Z,252.30
2018-06-09T02:11:54.716Z,194.17
2018-06-09T02:14:23.137Z,220.90
2018-06-09T02:16:51.676Z,248.37
2018-06-09T02:19:20.097Z,295.20
2018-06-09T02:21:48.536Z,249.80
2018-06-09T02:24:16.956Z,309.20
2018-06-09T02:26:45.411Z,226.23
2018-06-09T02:29:13.832Z,257.90
2018-06-09T02:31:42.262Z,264.33
2018-06-09T02:34:10.681Z,209.67
2018-06-09T02:36:39.122Z,265.00
2018-06-09T02:39:08.173Z,241.80
2018-06-09T02:41:36.651Z,232.03
2018-06-09T02:44:05.070Z,167.87
2018-06-09T02:46:33.496Z,282.57
2018-06-09T02:49:01.933Z,213.23
2018-06-09T02:51:30.381Z,172.97
2018-06-09T02:53:58.817Z,216.83
2018-06-09T02:56:27.249Z,221.50
2018-06-09T02:58:55.681Z,184.73
2018-06-09T03:01:24.108Z,210.60
2018-06-09T03:03:52.589Z,243.83
2018-06-09T03:06:21.013Z,236.33
2018-06-09T03:08:49.457Z,226.87
2018-06-09T03:11:17.904Z,186.90
2018-06-09T03:13:46.348Z,173.60
2018-06-09T03:16:14.769Z,209.47
2018-06-09T03:18:42.884Z,192.50
2018-06-09T03:21:11.304Z,150.40
2018-06-09T03:23:39.424Z,195.60
2018-06-09T03:26:07.844Z,193.93
2018-06-09T03:28:36.280Z,137.37
2018-06-09T03:31:04.718Z,175.57
2018-06-09T03:33:32.840Z,165.43
2018-06-09T03:36:01.252Z,185.57
2018-06-09T03:38:29.660Z,159.60
2018-06-09T03:40:58.088Z,156.80
2018-06-09T03:43:26.584Z,156.93
2018-06-09T03:45:54.964Z,175.43
2018-06-09T03:48:23.382Z,196.50
2018-06-09T03:50:51.805Z,201.80
2018-06-09T03:53:20.213Z,153.00
2018-06-09T03:55:48.645Z,187.93
2018-06-09T03:58:17.064Z,200.43
2018-06-09T04:00:45.505Z,153.60
2018-06-09T04:03:13.921Z,177.97
2018-06-09T04:05:42.373Z,187.30
2018-06-09T04:08:10.781Z,170.30
2018-06-09T04:10:38.904Z,200.27
2018-06-09T04:13:07.324Z,171.60
2018-06-09T04:15:35.482Z,197.87
2018-06-09T04:18:03.902Z,164.40
2018-06-09T04:20:32.332Z,191.20
2018-06-09T04:23:00.744Z,183.27
2018-06-09T04:25:28.875Z,181.57
2018-06-09T04:27:57.285Z,199.53
2018-06-09T04:30:25.706Z,132.50
2018-06-09T04:32:54.133Z,203.87
2018-06-09T04:35:22.239Z,187.40
2018-06-09T04:37:50.656Z,175.60
2018-06-09T04:40:19.076Z,191.07
2018-06-09T04:42:47.513Z,207.37
2018-06-09T04:45:15.925Z,179.80
2018-06-09T04:47:44.039Z,209.03
2018-06-09T04:50:12.486Z,221.60
2018-06-09T04:52:40.929Z,208.53
2018-06-09T04:55:09.361Z,229.97
2018-06-09T04:57:37.797Z,205.07
2018-06-09T05:00:06.352Z,231.80
2018-06-09T05:02:34.828Z,215.67
2018-06-09T05:05:03.281Z,303.53
2018-06-09T05:07:31.698Z,293.63
2018-06-09T05:10:00.147Z,287.77
2018-06-09T05:12:28.564Z,321.03
2018-06-09T05:14:57.004Z,326.47
2018-06-09T05:17:25.412Z,328.10
2018-06-09T05:19:53.853Z,297.73
2018-06-09T05:22:22.274Z,339.13
2018-06-09T05:24:50.713Z,316.50
2018-06-09T05:27:19.129Z,318.70
2018-06-09T05:29:47.648Z,302.27
2018-06-09T05:32:16.062Z,338.53
2018-06-09T05:34:44.492Z,331.53
2018-06-09T05:37:12.620Z,315.47
2018-06-09T05:39:41.036Z,286.13
2018-06-09T05:42:09.148Z,295.73
2018-06-09T05:44:37.566Z,249.73
2018-06-09T05:47:06.008Z,304.93
2018-06-09T05:49:34.478Z,273.93
2018-06-09T05:52:02.884Z,247.70
2018-06-09T05:54:31.305Z,235.63
2018-06-09T05:56:59.728Z,200.60
2018-06-09T05:59:28.149Z,222.23
2018-06-09T06:01:56.602Z,188.43
2018-06-09T06:04:25.068Z,177.03
2018-06-09T06:06:53.500Z,149.47
2018-06-09T06:09:21.913Z,183.87
2018-06-09T06:11:50.334Z,151.63
2018-06-09T06:14:18.465Z,134.40
2018-06-09T06:16:46.900Z,144.57
2018-06-09T06:19:15.357Z,138.97
2018-06-09T06:21:43.769Z,126.43
2018-06-09T06:24:12.196Z,144.03
2018-06-09T06:26:40.605Z,135.00
2018-06-09T06:29:08.715Z,148.07
2018-06-09T06:31:37.168Z,141.43
2018-06-09T06:34:05.613Z,136.17
2018-06-09T06:36:34.021Z,143.97
2018-06-09T06:39:02.181Z,118.60
2018-06-09T06:41:30.612Z,128.00
2018-06-09T06:43:59.032Z,124.73
2018-06-09T06:46:27.460Z,131.57
2018-06-09T06:48:55.869Z,134.40
2018-06-09T06:51:24.305Z,160.60
2018-06-09T06:53:52.728Z,165.37
2018-06-09T06:56:21.157Z,172.17
2018-06-09T06:58:49.573Z,152.93
2018-06-09T07:01:18.012Z,171.43
2018-06-09T07:03:46.430Z,166.83
2018-06-09T07:06:14.870Z,191.43
2018-06-09T07:08:43.284Z,191.40
2018-06-09T07:11:11.719Z,188.20
2018-06-09T07:13:40.189Z,184.47
2018-06-09T07:16:08.879Z,176.97
2018-06-09T07:18:37.297Z,171.90
2018-06-09T07:21:05.727Z,172.03
2018-06-09T07:23:34.186Z,173.03
2018-06-09T07:26:02.600Z,151.67
2018-06-09T07:28:31.063Z,142.73
2018-06-09T07:30:59.499Z,149.93
2018-06-09T07:33:27.949Z,150.03
2018-06-09T07:35:56.365Z,161.60
2018-06-09T07:38:24.804Z,142.57
2018-06-09T07:40:53.313Z,152.20
2018-06-09T07:43:21.768Z,144.20
2018-06-09T07:45:50.223Z,145.00
2018-06-09T07:48:18.665Z,113.97
2018-06-09T07:50:47.081Z,109.33
2018-06-09T07:53:15.533Z,113.53
2018-06-09T07:55:44.437Z,111.03
2018-06-09T07:58:12.556Z,125.67
2018-06-09T08:00:41.010Z,128.00
2018-06-09T08:03:09.433Z,130.83
2018-06-09T08:05:37.888Z,122.50
2018-06-09T08:08:06.328Z,106.90
2018-06-09T08:10:34.777Z,104.73
2018-06-09T08:13:03.213Z,117.00
2018-06-09T08:15:31.657Z,104.80
2018-06-09T08:17:59.773Z,90.47
2018-06-09T08:20:28.230Z,101.43
2018-06-09T08:22:56.702Z,100.80
2018-06-09T08:25:25.173Z,74.50
2018-06-09T08:27:53.603Z,104.60
2018-06-09T08:30:22.053Z,72.80
2018-06-09T08:32:50.465Z,86.27
2018-06-09T08:35:18.881Z,88.93
2018-06-09T08:37:47.023Z,80.50
2018-06-09T08:40:15.439Z,69.93
2018-06-09T08:42:43.881Z,77.30
2018-06-09T08:45:12.420Z,62.47
2018-06-09T08:47:40.876Z,73.20
2018-06-09T08:50:08.967Z,62.87
2018-06-09T08:52:37.405Z,63.93
2018-06-09T08:55:05.877Z,72.90
2018-06-09T08:57:34.289Z,66.20
2018-06-09T09:00:02.751Z,88.40
2018-06-09T09:02:30.872Z,71.37
2018-06-09T09:04:59.305Z,72.53
2018-06-09T09:07:27.728Z,70.60
2018-06-09T09:09:56.205Z,61.13
2018-06-09T09:12:24.809Z,68.97
2018-06-09T09:14:53.237Z,73.73
2018-06-09T09:17:21.713Z,90.87
2018-06-09T09:19:50.138Z,70.83
2018-06-09T09:22:18.569Z,54.77
2018-06-09T09:24:47.005Z,72.33
2018-06-09T09:27:15.465Z,59.47
2018-06-09T09:29:43.888Z,56.67
2018-06-09T09:32:12.050Z,61.73
2018-06-09T09:34:40.429Z,50.80
2018-06-09T09:37:08.556Z,64.60
2018-06-09T09:39:36.997Z,57.23
2018-06-09T09:42:05.473Z,64.60
2018-06-09T09:44:33.916Z,59.47
2018-06-09T09:47:02.333Z,59.83
2018-06-09T09:49:30.762Z,57.50
2018-06-09T09:51:59.221Z,54.10
2018-06-09T09:54:27.662Z,52.60
2018-06-09T09:56:55.767Z,47.67
2018-06-09T09:59:24.208Z,47.00
2018-06-09T10:01:52.308Z,55.87
2018-06-09T10:04:20.722Z,59.50
2018-06-09T10:06:49.170Z,47.63
2018-06-09T10:09:17.589Z,41.37
2018-06-09T10:11:46.005Z,48.77
2018-06-09T10:14:14.452Z,38.50
2018-06-09T10:16:42.887Z,32.70
2018-06-09T10:19:10.983Z,48.27
2018-06-09T10:21:39.104Z,38.60
2018-06-09T10:24:07.222Z,34.57
2018-06-09T10:26:35.329Z,23.60
2018-06-09T10:29:03.500Z,33.97
2018-06-09T10:31:31.604Z,51.10
2018-06-09T10:33:59.725Z,32.63
2018-06-09T10:36:27.884Z,37.67
2018-06-09T10:38:56.000Z,30.37
2018-06-09T10:41:24.104Z,31.30
2018-06-09T10:43:52.259Z,34.43
2018-06-09T10:46:20.360Z,35.57
2018-06-09T10:48:48.460Z,33.90
2018-06-09T10:51:16.579Z,34.93
2018-06-09T10:53:44.677Z,30.70
2018-06-09T10:56:12.788Z,39.90
2018-06-09T10:58:40.928Z,36.30
2018-06-09T11:01:09.059Z,25.80
2018-06-09T11:03:37.173Z,31.00
2018-06-09T11:06:05.311Z,30.50
2018-06-09T11:08:33.421Z,27.67
2018-06-09T11:11:01.541Z,32.17
2018-06-09T11:13:29.680Z,31.73
2018-06-09T11:15:57.780Z,42.60
2018-06-09T11:18:25.893Z,33.53
2018-06-09T11:20:54.032Z,31.80
2018-06-09T11:23:22.136Z,36.87
2018-06-09T11:25:50.228Z,24.07
2018-06-09T11:28:18.369Z,44.20
2018-06-09T11:30:46.465Z,22.37
2018-06-09T11:33:14.574Z,25.00
2018-06-09T11:35:42.712Z,36.33
2018-06-09T11:38:10.816Z,28.17
2018-06-09T11:40:38.916Z,35.50
2018-06-09T11:43:07.044Z,28.00
2018-06-09T11:45:35.204Z,37.13
2018-06-09T11:48:03.316Z,33.23
2018-06-09T11:50:31.449Z,31.13
2018-06-09T11:52:59.552Z,29.00
2018-06-09T11:55:27.680Z,26.67
2018-06-09T11:57:55.802Z,27.40
2018-06-09T12:00:23.911Z,25.80
2018-06-09T12:02:52.020Z,22.77
2018-06-09T12:05:20.542Z,22.73
2018-06-09T12:07:48.648Z,28.30
2018-06-09T12:10:16.743Z,27.00
2018-06-09T12:12:44.870Z,30.53
2018-06-09T12:15:12.986Z,26.97
2018-06-09T12:17:41.427Z,24.77
2018-06-09T12:20:09.557Z,20.50
2018-06-09T12:22:37.665Z,24.90
2018-06-09T12:25:05.779Z,24.57
2018-06-09T12:27:33.928Z,27.13
2018-06-09T12:30:02.032Z,30.73
2018-06-09T12:32:30.190Z,29.90
2018-06-09T12:34:58.292Z,21.77
2018-06-09T12:37:26.392Z,22.83
2018-06-09T12:39:54.800Z,23.23
2018-06-09T12:42:22.924Z,26.83
2018-06-09T12:44:51.029Z,32.77
2018-06-09T12:47:19.184Z,21.83
2018-06-09T12:49:47.340Z,32.60
2018-06-09T12:52:15.446Z,30.80
2018-06-09T12:54:43.607Z,27.60
2018-06-09T12:57:11.688Z,34.40
2018-06-09T12:59:39.788Z,31.57
2018-06-09T13:02:07.884Z,34.13
2018-06-09T13:04:36.023Z,34.60
2018-06-09T13:07:04.120Z,34.83
2018-06-09T13:09:32.224Z,28.37
2018-06-09T13:12:00.392Z,29.00
2018-06-09T13:14:28.498Z,46.70
2018-06-09T13:16:56.592Z,30.80
2018-06-09T13:19:24.801Z,39.00
2018-06-09T13:21:52.871Z,31.37
2018-06-09T13:24:20.978Z,30.37
2018-06-09T13:26:49.418Z,42.03
2018-06-09T13:29:17.539Z,38.17
2018-06-09T13:31:45.643Z,44.27
2018-06-09T13:34:13.772Z,37.53
2018-06-09T13:36:42.223Z,32.50
2018-06-09T13:39:10.335Z,38.87
2018-06-09T13:41:38.861Z,46.83
2018-06-09T13:44:06.988Z,30.43
2018-06-09T13:46:35.296Z,40.67
2018-06-09T13:49:03.564Z,36.47
2018-06-09T13:51:31.671Z,36.40
2018-06-09T13:53:59.960Z,43.10
2018-06-09T13:56:28.517Z,43.83
2018-06-09T13:58:56.946Z,42.07
2018-06-09T14:01:25.216Z,39.63
2018-06-09T14:03:53.354Z,32.30
2018-06-09T14:06:21.520Z,37.70
2018-06-09T14:08:49.627Z,38.40
2018-06-09T14:11:17.868Z,32.60
2018-06-09T14:13:46.313Z,28.03
2018-06-09T14:16:14.766Z,25.77
2018-06-09T14:18:43.233Z,38.00
2018-06-09T14:21:11.653Z,33.43
2018-06-09T14:23:39.783Z,46.40
2018-06-09T14:26:08.262Z,41.20
2018-06-09T14:28:36.718Z,31.27
2018-06-09T14:31:04.853Z,40.03
2018-06-09T14:33:33.324Z,32.70
2018-06-09T14:36:01.753Z,48.30
2018-06-09T14:38:29.868Z,42.07
2018-06-09T14:40:58.001Z,42.50
2018-06-09T14:43:26.476Z,40.20
2018-06-09T14:45:54.913Z,41.50
2018-06-09T14:48:23.368Z,45.07
2018-06-09T14:50:51.800Z,60.93
2018-06-09T14:53:20.254Z,44.13
2018-06-09T14:55:48.728Z,42.27
2018-06-09T14:58:17.157Z,34.47
2018-06-09T15:00:45.601Z,36.03
2018-06-09T15:03:14.090Z,33.57
2018-06-09T15:05:42.193Z,31.60
2018-06-09T15:08:10.658Z,34.57
2018-06-09T15:10:39.111Z,38.40
2018-06-09T15:13:07.524Z,25.77
2018-06-09T15:15:35.960Z,34.60
2018-06-09T15:18:04.617Z,36.60
2018-06-09T15:20:33.352Z,39.10
2018-06-09T15:23:01.463Z,29.50
2018-06-09T15:25:30.192Z,41.53
2018-06-09T15:27:58.637Z,34.80
2018-06-09T15:30:27.058Z,33.17
2018-06-09T15:32:55.200Z,44.87
2018-06-09T15:35:23.650Z,33.57
2018-06-09T15:37:52.085Z,43.47
2018-06-09T15:40:20.252Z,32.20
2018-06-09T15:42:48.665Z,38.07
2018-06-09T15:45:17.104Z,30.00
2018-06-09T15:47:45.553Z,43.77
2018-06-09T15:50:13.984Z,41.13
2018-06-09T15:52:42.400Z,36.27
2018-06-09T15:55:10.912Z,32.43
2018-06-09T15:57:39.368Z,37.03
2018-06-09T16:00:07.822Z,25.90
2018-06-09T16:02:36.269Z,41.43
2018-06-09T16:05:04.404Z,37.13
2018-06-09T16:07:32.831Z,34.50
2018-06-09T16:10:00.955Z,40.33
2018-06-09T16:12:29.381Z,33.57
2018-06-09T16:14:57.834Z,31.57
2018-06-09T16:17:26.294Z,33.17
2018-06-09T16:19:54.745Z,42.13
2018-06-09T16:22:23.177Z,27.73
2018-06-09T16:24:51.612Z,45.73
2018-06-09T16:27:20.105Z,38.57
2018-06-09T16:29:48.550Z,30.87
2018-06-09T16:32:17.030Z,35.77
2018-06-09T16:34:45.462Z,34.03
2018-06-09T16:37:13.579Z,30.43
2018-06-09T16:39:42.049Z,34.77
2018-06-09T16:42:10.493Z,42.80
2018-06-09T16:44:38.941Z,25.03
2018-06-09T16:47:07.390Z,32.90
2018-06-09T16:49:35.834Z,22.37
2018-06-09T16:52:04.274Z,24.20
2018-06-09T16:54:32.764Z,21.53
2018-06-09T16:57:01.205Z,35.33
2018-06-09T16:59:29.695Z,30.03
2018-06-09T17:01:58.176Z,29.23
2018-06-09T17:04:26.634Z,25.00
2018-06-09T17:06:55.069Z,26.80
2018-06-09T17:09:23.497Z,31.97
2018-06-09T17:11:51.930Z,32.97
2018-06-09T17:14:20.365Z,27.37
2018-06-09T17:16:48.813Z,32.37
2018-06-09T17:19:17.256Z,30.23
2018-06-09T17:21:45.781Z,29.60
2018-06-09T17:24:14.245Z,32.07
2018-06-09T17:26:42.712Z,24.30
2018-06-09T17:29:11.197Z,26.37
2018-06-09T17:31:39.662Z,27.03
2018-06-09T17:34:08.124Z,27.07
2018-06-09T17:36:36.592Z,30.67
2018-06-09T17:39:07.445Z,31.10
2018-06-09T17:41:35.876Z,30.13
2018-06-09T17:44:04.351Z,29.57
2018-06-09T17:46:32.801Z,29.33
2018-06-09T17:49:01.259Z,26.30
2018-06-09T17:51:29.700Z,31.80
2018-06-09T17:53:58.238Z,27.23
2018-06-09T17:56:26.704Z,26.17
2018-06-09T17:58:55.225Z,31.93
2018-06-09T18:01:23.665Z,30.27
2018-06-09T18:03:52.094Z,27.43
2018-06-09T18:06:20.535Z,28.43
2018-06-09T18:08:49.009Z,27.50
2018-06-09T18:11:17.445Z,35.40
2018-06-09T18:13:45.885Z,36.97
2018-06-09T18:16:14.012Z,34.43
2018-06-09T18:18:42.455Z,25.70
2018-06-09T18:21:10.899Z,26.40
2018-06-09T18:23:39.048Z,39.77
2018-06-09T18:26:07.481Z,29.83
2018-06-09T18:28:35.981Z,28.90
2018-06-09T18:31:04.473Z,30.17
2018-06-09T18:33:32.927Z,32.27
2018-06-09T18:36:01.394Z,42.53
2018-06-09T18:38:29.854Z,32.77
2018-06-09T18:40:58.281Z,27.60
2018-06-09T18:43:26.740Z,36.83
2018-06-09T18:45:55.185Z,31.33
2018-06-09T18:48:23.717Z,29.33
2018-06-09T18:50:52.190Z,30.87
2018-06-09T18:53:20.636Z,38.23
2018-06-09T18:55:49.071Z,46.80
2018-06-09T18:58:17.499Z,36.80
2018-06-09T19:00:46.099Z,34.50
2018-06-09T19:03:14.534Z,38.10
2018-06-09T19:05:42.988Z,37.67
2018-06-09T19:08:11.930Z,32.70
2018-06-09T19:10:40.353Z,34.43
2018-06-09T19:13:08.949Z,32.10
2018-06-09T19:15:37.881Z,25.77
2018-06-09T19:18:06.357Z,35.83
2018-06-09T19:20:34.821Z,27.80
2018-06-09T19:23:02.969Z,31.60
2018-06-09T19:25:31.410Z,27.83
2018-06-09T19:27:59.860Z,33.03
2018-06-09T19:30:28.483Z,26.90
2018-06-09T19:32:57.547Z,34.43
2018-06-09T19:35:25.987Z,39.57
2018-06-09T19:37:54.453Z,36.97
2018-06-09T19:40:22.919Z,30.70
2018-06-09T19:42:51.429Z,31.73
2018-06-09T19:45:19.930Z,34.60
2018-06-09T19:47:48.451Z,26.40
2018-06-09T19:50:17.052Z,27.13
2018-06-09T19:52:45.529Z,42.13
2018-06-09T19:55:14.063Z,35.30
2018-06-09T19:57:42.498Z,36.83
2018-06-09T20:00:11.040Z,29.37
2018-06-09T20:02:39.566Z,38.83
2018-06-09T20:05:08.107Z,38.53
2018-06-09T20:07:36.688Z,36.00
2018-06-09T20:10:05.209Z,52.60
2018-06-09T20:12:34.587Z,42.93
2018-06-09T20:15:03.139Z,40.23
2018-06-09T20:17:31.526Z,45.33
2018-06-09T20:19:59.964Z,36.03
2018-06-09T20:22:28.424Z,43.43
2018-06-09T20:24:56.880Z,40.63
2018-06-09T20:27:25.394Z,44.97
2018-06-09T20:29:53.849Z,32.40
